createdAt,value
2022-08-19T00:02:04.150Z,100168.91
2022-08-19T00:04:36.127Z,100176.66
2022-08-19T00:07:05.322Z,100173.25
2022-08-19T00:09:32.609Z,100176.91
2022-08-19T00:11:59.959Z,100170.88
2022-08-19T00:14:28.506Z,100173.53
2022-08-19T00:16:56.461Z,100176.19
2022-08-19T00:19:24.922Z,100170.13
2022-08-19T00:21:53.689Z,100175.47
2022-08-19T00:24:21.245Z,100168.47
2022-08-19T00:26:48.693Z,100162.28
2022-08-19T00:29:19.794Z,100169.41
2022-08-19T00:31:47.316Z,100167.72
2022-08-19T00:34:15.964Z,100174.03
2022-08-19T00:36:44.078Z,100183.00
2022-08-19T00:39:12.219Z,100170.66
2022-08-19T00:41:39.949Z,100173.59
2022-08-19T00:44:27.107Z,100166.69
2022-08-19T00:46:58.547Z,100176.50
2022-08-19T00:49:42.154Z,100181.84
2022-08-19T00:52:14.178Z,100184.63
2022-08-19T00:54:42.938Z,100173.09
2022-08-19T00:57:15.990Z,100170.53
2022-08-19T01:00:02.013Z,100182.06
2022-08-19T01:02:31.353Z,100175.03
2022-08-19T01:04:58.940Z,100178.53
2022-08-19T01:07:26.097Z,100187.63
2022-08-19T01:09:53.463Z,100187.63
2022-08-19T01:12:20.537Z,100193.97
2022-08-19T01:14:48.951Z,100194.06
2022-08-19T01:17:17.066Z,100189.69
2022-08-19T01:19:47.956Z,100187.88
2022-08-19T01:22:36.937Z,100185.47
2022-08-19T01:25:06.232Z,100194.31
2022-08-19T01:27:43.294Z,100193.47
2022-08-19T01:30:14.993Z,100196.28
2022-08-19T01:32:42.012Z,100194.56
2022-08-19T01:35:09.882Z,100193.75
2022-08-19T01:37:51.057Z,100194.72
2022-08-19T01:40:18.167Z,100197.47
2022-08-19T01:42:45.083Z,100189.63
2022-08-19T01:45:12.051Z,100202.09
2022-08-19T01:47:40.053Z,100206.72
2022-08-19T01:50:08.939Z,100202.34
2022-08-19T01:52:38.067Z,100209.53
2022-08-19T01:55:07.928Z,100205.16
2022-08-19T01:57:35.244Z,100192.69
2022-08-19T02:00:06.229Z,100194.50
2022-08-19T02:02:33.612Z,100197.16
2022-08-19T02:05:00.629Z,100204.44
2022-08-19T02:07:29.589Z,100198.38
2022-08-19T02:09:56.827Z,100196.69
2022-08-19T02:12:23.883Z,100194.03
2022-08-19T02:14:50.873Z,100214.34
2022-08-19T02:17:17.873Z,100211.97
2022-08-19T02:19:44.937Z,100213.78
2022-08-19T02:22:11.824Z,100219.09
2022-08-19T02:24:39.986Z,100224.44
2022-08-19T02:27:07.232Z,100218.41
2022-08-19T02:29:34.250Z,100219.22
2022-08-19T02:32:01.129Z,100215.84
2022-08-19T02:34:28.241Z,100218.50
2022-08-19T02:36:55.385Z,100216.84
2022-08-19T02:39:23.838Z,100223.13
2022-08-19T02:41:51.972Z,100216.94
2022-08-19T02:44:29.772Z,100224.06
2022-08-19T02:46:58.935Z,100221.41
2022-08-19T02:49:25.868Z,100227.72
2022-08-19T02:51:52.894Z,100227.72
2022-08-19T02:54:20.428Z,100227.84
2022-08-19T02:56:47.873Z,100229.66
2022-08-19T02:59:15.046Z,100230.63
2022-08-19T03:01:43.674Z,100230.88
2022-08-19T03:04:15.497Z,100238.03
2022-08-19T03:06:46.974Z,100238.16
2022-08-19T03:09:15.162Z,100240.81
2022-08-19T03:11:42.409Z,100247.09
2022-08-19T03:14:10.793Z,100242.75
2022-08-19T03:16:49.824Z,100254.38
2022-08-19T03:19:20.137Z,100252.66
2022-08-19T03:21:47.225Z,100258.00
2022-08-19T03:24:15.533Z,100253.66
2022-08-19T03:26:46.427Z,100254.47
2022-08-19T03:29:14.321Z,100257.16
2022-08-19T03:31:52.195Z,100257.28
2022-08-19T03:34:29.333Z,100254.63
2022-08-19T03:36:59.289Z,100260.91
2022-08-19T03:39:27.053Z,100265.41
2022-08-19T03:42:31.882Z,100264.56
2022-08-19T03:44:46.109Z,100268.88
2022-08-19T03:47:17.374Z,100255.72
2022-08-19T03:49:45.203Z,100261.91
2022-08-19T03:52:12.493Z,100263.69
2022-08-19T03:54:39.867Z,100258.47
2022-08-19T03:57:07.320Z,100259.47
2022-08-19T03:59:36.533Z,100259.47
2022-08-19T04:02:10.374Z,100255.09
2022-08-19T04:04:39.752Z,100251.50
2022-08-19T04:07:07.828Z,100242.78
2022-08-19T04:09:37.897Z,100259.56
2022-08-19T04:12:06.790Z,100261.66
2022-08-19T04:14:34.976Z,100268.91
2022-08-19T04:17:06.013Z,100267.22
2022-08-19T04:19:33.876Z,100275.31
2022-08-19T04:22:01.022Z,100279.81
2022-08-19T04:24:28.923Z,100265.66
2022-08-19T04:26:55.883Z,100271.09
2022-08-19T04:29:26.504Z,100273.03
2022-08-19T04:31:54.904Z,100266.84
2022-08-19T04:34:24.670Z,100262.63
2022-08-19T04:36:53.866Z,100272.31
2022-08-19T04:39:24.503Z,100267.09
2022-08-19T04:42:10.518Z,100259.00
2022-08-19T04:44:38.958Z,100268.56
2022-08-19T04:47:13.537Z,100270.50
2022-08-19T04:49:40.478Z,100281.00
2022-08-19T04:52:07.570Z,100281.00
2022-08-19T04:54:38.497Z,100282.72
2022-08-19T04:57:11.378Z,100288.91
2022-08-19T04:59:40.517Z,100286.22
2022-08-19T05:02:10.427Z,100283.69
2022-08-19T05:04:40.470Z,100285.25
2022-08-19T05:07:09.579Z,100290.72
2022-08-19T05:09:57.593Z,100291.28
2022-08-19T05:12:28.824Z,100296.63
2022-08-19T05:14:58.242Z,100304.97
2022-08-19T05:17:32.287Z,100299.16
2022-08-19T05:20:21.129Z,100293.47
2022-08-19T05:22:49.120Z,100284.88
2022-08-19T05:25:20.453Z,100292.50
2022-08-19T05:27:48.975Z,100296.59
2022-08-19T05:30:16.744Z,100305.22
2022-08-19T05:32:44.501Z,100302.56
2022-08-19T05:35:12.906Z,100311.16
2022-08-19T05:37:41.723Z,100303.88
2022-08-19T05:40:10.180Z,100319.00
2022-08-19T05:42:37.399Z,100327.72
2022-08-19T05:45:05.702Z,100328.47
2022-08-19T05:47:33.323Z,100332.78
2022-08-19T05:50:04.941Z,100339.81
2022-08-19T05:52:32.378Z,100351.06
2022-08-19T05:55:00.432Z,100364.28
2022-08-19T05:57:27.693Z,100350.81
2022-08-19T05:59:58.244Z,100357.00
2022-08-19T06:02:32.011Z,100344.66
2022-08-19T06:04:59.224Z,100340.16
2022-08-19T06:07:26.618Z,100344.66
2022-08-19T06:09:59.840Z,100350.25
2022-08-19T06:12:34.431Z,100352.16
2022-08-19T06:15:04.834Z,100348.06
2022-08-19T06:17:32.390Z,100347.31
2022-08-19T06:20:00.286Z,100351.91
2022-08-19T06:22:27.855Z,100358.19
2022-08-19T06:24:55.877Z,100352.41
2022-08-19T06:27:23.365Z,100359.19
2022-08-19T06:29:50.965Z,100363.28
2022-08-19T06:32:20.059Z,100361.34
2022-08-19T06:34:47.832Z,100374.44
2022-08-19T06:37:15.419Z,100380.84
2022-08-19T06:39:44.384Z,100381.56
2022-08-19T06:42:14.682Z,100377.09
2022-08-19T06:44:48.082Z,100373.56
2022-08-19T06:47:25.038Z,100381.56
2022-08-19T06:50:05.351Z,100386.03
2022-08-19T06:52:36.665Z,100392.44
2022-08-19T06:55:05.870Z,100395.00
2022-08-19T06:57:34.757Z,100399.84
2022-08-19T07:00:02.508Z,100401.16
2022-08-19T07:02:29.965Z,100385.19
2022-08-19T07:04:59.317Z,100397.66
2022-08-19T07:07:26.787Z,100402.72
2022-08-19T07:09:59.958Z,100392.94
2022-08-19T07:12:38.234Z,100397.19
2022-08-19T07:15:06.513Z,100396.31
2022-08-19T07:17:34.429Z,100403.22
2022-08-19T07:20:06.831Z,100404.19
2022-08-19T07:22:41.965Z,100407.81
2022-08-19T07:25:11.423Z,100401.84
2022-08-19T07:27:39.577Z,100408.66
2022-08-19T07:30:12.072Z,100413.84
2022-08-19T07:32:40.267Z,100407.09
2022-08-19T07:35:08.313Z,100407.00
2022-08-19T07:37:39.349Z,100403.72
2022-08-19T07:40:09.617Z,100413.03
2022-08-19T07:42:41.779Z,100414.59
2022-08-19T07:45:10.461Z,100414.88
2022-08-19T07:47:49.995Z,100414.56
2022-08-19T07:50:21.826Z,100418.81
2022-08-19T07:52:52.598Z,100420.38
2022-08-19T07:55:42.684Z,100430.72
2022-08-19T07:58:15.569Z,100421.56
2022-08-19T08:00:52.515Z,100423.28
2022-08-19T08:03:46.878Z,100426.66
2022-08-19T08:06:34.761Z,100420.03
2022-08-19T08:09:12.755Z,100424.03
2022-08-19T08:11:52.680Z,100423.81
2022-08-19T08:14:35.280Z,100420.91
2022-08-19T08:17:03.998Z,100415.09
2022-08-19T08:19:39.609Z,100419.44
2022-08-19T08:22:08.182Z,100426.94
2022-08-19T08:24:37.871Z,100423.56
2022-08-19T08:27:11.414Z,100431.88
2022-08-19T08:29:43.211Z,100430.53
2022-08-19T08:32:14.894Z,100433.47
2022-08-19T08:34:44.604Z,100425.72
2022-08-19T08:37:16.702Z,100423.28
2022-08-19T08:39:45.111Z,100430.72
2022-08-19T08:42:17.720Z,100424.78
2022-08-19T08:45:16.635Z,100426.81
2022-08-19T08:47:50.452Z,100433.13
2022-08-19T08:50:41.537Z,100428.88
2022-08-19T08:53:10.376Z,100431.53
2022-08-19T08:55:38.119Z,100429.13
2022-08-19T08:58:07.420Z,100435.38
2022-08-19T09:00:39.185Z,100427.81
2022-08-19T09:03:27.973Z,100419.09
2022-08-19T09:06:12.092Z,100422.72
2022-08-19T09:09:15.209Z,100422.25
2022-08-19T09:11:52.255Z,100421.19
2022-08-19T09:14:50.857Z,100430.72
2022-08-19T09:17:21.153Z,100419.13
2022-08-19T09:19:54.197Z,100428.69
2022-08-19T09:22:25.953Z,100437.44
2022-08-19T09:24:55.333Z,100427.50
2022-08-19T09:27:41.946Z,100424.25
2022-08-19T09:30:14.190Z,100434.91
2022-08-19T09:32:43.158Z,100419.44
2022-08-19T09:35:10.642Z,100417.97
2022-08-19T09:37:40.377Z,100417.50
2022-08-19T09:40:09.222Z,100414.50
2022-08-19T09:42:39.257Z,100411.47
2022-08-19T09:45:22.523Z,100409.06
2022-08-19T09:47:54.388Z,100406.88
2022-08-19T09:50:23.709Z,100414.41
2022-08-19T09:52:54.053Z,100419.72
2022-08-19T09:55:31.202Z,100410.03
2022-08-19T09:58:03.093Z,100415.22
2022-08-19T10:00:32.175Z,100412.81
2022-08-19T10:02:59.717Z,100403.84
2022-08-19T10:05:48.447Z,100406.66
2022-08-19T10:08:22.243Z,100394.19
2022-08-19T10:10:55.216Z,100400.09
2022-08-19T10:13:27.563Z,100404.00
2022-08-19T10:15:58.477Z,100406.28
2022-08-19T10:18:27.230Z,100409.41
2022-08-19T10:21:13.658Z,100414.38
2022-08-19T10:23:48.326Z,100402.63
2022-08-19T10:26:20.122Z,100404.19
2022-08-19T10:28:49.101Z,100395.97
2022-08-19T10:32:00.608Z,100399.25
2022-08-19T10:34:27.069Z,100381.31
2022-08-19T10:37:00.806Z,100396.09
2022-08-19T10:39:35.439Z,100392.34
2022-08-19T10:42:11.990Z,100392.34
2022-08-19T10:44:39.846Z,100404.59
2022-08-19T10:47:17.902Z,100407.25
2022-08-19T10:50:15.090Z,100388.44
2022-08-19T10:52:49.561Z,100388.44
2022-08-19T10:55:40.501Z,100385.69
2022-08-19T10:58:16.341Z,100379.34
2022-08-19T11:00:44.819Z,100390.88
2022-08-19T11:03:12.279Z,100387.25
2022-08-19T11:05:40.799Z,100382.72
2022-08-19T11:08:21.194Z,100379.25
2022-08-19T11:10:50.527Z,100386.25
2022-08-19T11:13:18.003Z,100385.28
2022-08-19T11:15:47.073Z,100376.59
2022-08-19T11:18:14.662Z,100386.25
2022-08-19T11:20:41.808Z,100388.22
2022-08-19T11:23:08.985Z,100385.53
2022-08-19T11:25:36.617Z,100386.50
2022-08-19T11:28:04.226Z,100382.88
2022-08-19T11:30:31.239Z,100382.88
2022-08-19T11:32:58.866Z,100388.22
2022-08-19T11:35:25.928Z,100382.88
2022-08-19T11:37:53.544Z,100385.53
2022-08-19T11:40:20.840Z,100392.56
2022-08-19T11:42:57.795Z,100386.38
2022-08-19T11:45:29.337Z,100389.78
2022-08-19T11:47:57.337Z,100393.28
2022-08-19T11:50:25.975Z,100395.97
2022-08-19T11:52:57.352Z,100398.63
2022-08-19T11:55:24.953Z,100398.47
2022-08-19T11:57:52.572Z,100398.63
2022-08-19T12:00:19.961Z,100396.91
2022-08-19T12:02:47.047Z,100388.91
2022-08-19T12:05:14.232Z,100400.44
2022-08-19T12:07:42.747Z,100411.94
2022-08-19T12:10:10.642Z,100403.00
2022-08-19T12:12:43.780Z,100401.03
2022-08-19T12:15:13.423Z,100401.91
2022-08-19T12:17:41.536Z,100407.09
2022-08-19T12:20:12.172Z,100395.47
2022-08-19T12:22:39.412Z,100408.78
2022-08-19T12:25:07.201Z,100406.72
2022-08-19T12:27:40.639Z,100404.88
2022-08-19T12:30:12.434Z,100401.25
2022-08-19T12:32:39.922Z,100402.13
2022-08-19T12:35:10.405Z,100406.34
2022-08-19T12:37:38.092Z,100394.69
2022-08-19T12:40:06.599Z,100407.78
2022-08-19T12:42:33.852Z,100407.06
2022-08-19T12:45:00.938Z,100413.13
2022-08-19T12:47:28.498Z,100405.00
2022-08-19T12:49:56.230Z,100408.63
2022-08-19T12:52:26.179Z,100404.25
2022-08-19T12:54:55.687Z,100415.06
2022-08-19T12:57:32.286Z,100411.41
2022-08-19T13:00:05.282Z,100407.06
2022-08-19T13:02:38.899Z,100415.06
2022-08-19T13:05:10.276Z,100418.69
2022-08-19T13:07:39.108Z,100411.41
2022-08-19T13:10:13.163Z,100421.25
2022-08-19T13:12:40.631Z,100423.78
2022-08-19T13:15:11.107Z,100409.72
2022-08-19T13:17:39.475Z,100411.78
2022-08-19T13:20:09.383Z,100410.69
2022-08-19T13:22:37.315Z,100404.41
2022-08-19T13:25:06.667Z,100407.78
2022-08-19T13:27:34.137Z,100405.00
2022-08-19T13:30:20.843Z,100405.00
2022-08-19T13:33:06.571Z,100412.88
2022-08-19T13:35:33.682Z,100401.09
2022-08-19T13:38:06.430Z,100430.03
2022-08-19T13:40:39.887Z,100418.28
2022-08-19T13:43:17.786Z,100420.13
2022-08-19T13:45:55.068Z,100418.88
2022-08-19T13:48:22.677Z,100419.47
2022-08-19T13:50:49.935Z,100408.81
2022-08-19T13:53:18.188Z,100395.84
2022-08-19T13:55:45.839Z,100412.13
2022-08-19T13:58:13.542Z,100412.13
2022-08-19T14:00:43.998Z,100417.47
2022-08-19T14:03:12.426Z,100410.88
2022-08-19T14:05:40.185Z,100402.75
2022-08-19T14:08:07.554Z,100395.47
2022-08-19T14:10:36.750Z,100391.81
2022-08-19T14:13:05.147Z,100403.09
2022-08-19T14:15:32.841Z,100411.94
2022-08-19T14:18:00.802Z,100413.50
2022-08-19T14:20:29.385Z,100412.53
2022-08-19T14:22:57.279Z,100408.03
2022-08-19T14:25:29.983Z,100409.13
2022-08-19T14:27:58.054Z,100407.19
2022-08-19T14:30:31.018Z,100408.44
2022-08-19T14:32:59.672Z,100407.72
2022-08-19T14:35:28.148Z,100418.38
2022-08-19T14:37:57.090Z,100415.13
2022-08-19T14:40:27.377Z,100414.78
2022-08-19T14:43:00.532Z,100420.38
2022-08-19T14:45:31.577Z,100405.56
2022-08-19T14:48:00.631Z,100423.78
2022-08-19T14:50:28.860Z,100425.72
2022-08-19T14:53:05.309Z,100433.59
2022-08-19T14:55:44.782Z,100423.53
2022-08-19T14:58:29.599Z,100421.56
2022-08-19T15:00:59.636Z,100414.28
2022-08-19T15:03:27.246Z,100415.16
2022-08-19T15:05:54.704Z,100421.34
2022-08-19T15:08:24.006Z,100424.97
2022-08-19T15:10:51.167Z,100418.66
2022-08-19T15:13:19.043Z,100419.63
2022-08-19T15:15:46.837Z,100422.19
2022-08-19T15:18:14.432Z,100430.19
2022-08-19T15:20:50.666Z,100430.28
2022-08-19T15:23:20.781Z,100432.38
2022-08-19T15:25:48.223Z,100444.00
2022-08-19T15:28:17.694Z,100445.81
2022-08-19T15:30:45.030Z,100435.41
2022-08-19T15:33:16.846Z,100441.97
2022-08-19T15:35:44.931Z,100451.78
2022-08-19T15:38:14.233Z,100446.44
2022-08-19T15:40:43.219Z,100441.38
2022-08-19T15:43:10.547Z,100453.59
2022-08-19T15:45:37.997Z,100441.97
2022-08-19T15:48:05.858Z,100458.94
2022-08-19T15:50:33.422Z,100448.50
2022-08-19T15:53:06.326Z,100455.78
2022-08-19T15:55:37.303Z,100448.88
2022-08-19T15:58:28.534Z,100446.47
2022-08-19T16:01:21.308Z,100450.22
2022-08-19T16:04:13.725Z,100436.66
2022-08-19T16:06:44.556Z,100435.94
2022-08-19T16:09:11.723Z,100437.66
2022-08-19T16:11:39.647Z,100433.38
2022-08-19T16:14:09.697Z,100429.91
2022-08-19T16:16:38.224Z,100436.44
2022-08-19T16:19:10.429Z,100430.84
2022-08-19T16:21:41.540Z,100436.03
2022-08-19T16:24:12.438Z,100434.47
2022-08-19T16:26:40.727Z,100452.41
2022-08-19T16:29:12.013Z,100455.81
2022-08-19T16:31:41.871Z,100450.75
2022-08-19T16:34:09.191Z,100454.22
2022-08-19T16:36:36.758Z,100458.00
2022-08-19T16:39:04.356Z,100451.22
2022-08-19T16:41:31.520Z,100453.03
2022-08-19T16:43:58.946Z,100456.81
2022-08-19T16:46:27.833Z,100459.84
2022-08-19T16:48:55.672Z,100452.91
2022-08-19T16:51:23.330Z,100460.28
2022-08-19T16:53:53.413Z,100463.81
2022-08-19T16:56:21.549Z,100480.75
2022-08-19T16:58:50.801Z,100471.19
2022-08-19T17:01:18.988Z,100474.22
2022-08-19T17:03:46.606Z,100488.16
2022-08-19T17:06:18.939Z,100477.59
2022-08-19T17:08:52.497Z,100483.41
2022-08-19T17:11:21.424Z,100484.38
2022-08-19T17:13:50.600Z,100493.56
2022-08-19T17:16:19.594Z,100500.38
2022-08-19T17:18:46.673Z,100491.88
2022-08-19T17:21:13.977Z,100504.97
2022-08-19T17:23:43.437Z,100518.06
2022-08-19T17:26:17.966Z,100506.31
2022-08-19T17:28:50.081Z,100506.22
2022-08-19T17:31:23.604Z,100501.50
2022-08-19T17:33:52.146Z,100507.69
2022-08-19T17:36:24.289Z,100503.06
2022-08-19T17:38:53.657Z,100505.50
2022-08-19T17:41:20.949Z,100498.34
2022-08-19T17:43:48.092Z,100498.13
2022-08-19T17:46:18.947Z,100507.81
2022-08-19T17:48:52.074Z,100505.03
2022-08-19T17:51:24.507Z,100496.78
2022-08-19T17:53:54.191Z,100500.16
2022-08-19T17:56:22.515Z,100505.25
2022-08-19T17:58:57.819Z,100506.44
2022-08-19T18:01:39.022Z,100514.72
2022-08-19T18:04:19.045Z,100518.34
2022-08-19T18:06:53.036Z,100512.78
2022-08-19T18:09:25.520Z,100516.03
2022-08-19T18:11:57.319Z,100509.72
2022-08-19T18:14:33.805Z,100514.22
2022-08-19T18:17:10.440Z,100501.75
2022-08-19T18:19:41.460Z,100497.13
2022-08-19T18:22:30.123Z,100505.97
2022-08-19T18:24:58.536Z,100505.03
2022-08-19T18:27:28.180Z,100500.66
2022-08-19T18:29:59.990Z,100512.53
2022-08-19T18:32:38.585Z,100514.44
2022-08-19T18:35:11.575Z,100523.91
2022-08-19T18:37:40.665Z,100530.81
2022-08-19T18:40:28.187Z,100533.34
2022-08-19T18:43:14.189Z,100536.88
2022-08-19T18:46:01.160Z,100538.44
2022-08-19T18:48:47.011Z,100536.78
2022-08-19T18:51:16.696Z,100544.63
2022-08-19T18:53:46.873Z,100534.81
2022-08-19T18:56:20.507Z,100545.50
2022-08-19T18:58:47.719Z,100547.16
2022-08-19T19:01:20.304Z,100544.25
2022-08-19T19:03:50.845Z,100553.97
2022-08-19T19:06:22.762Z,100558.34
2022-08-19T19:08:52.127Z,100565.25
2022-08-19T19:11:26.007Z,100561.50
2022-08-19T19:13:54.021Z,100562.94
2022-08-19T19:16:24.637Z,100563.66
2022-08-19T19:18:53.115Z,100568.97
2022-08-19T19:21:23.244Z,100571.66
2022-08-19T19:23:51.236Z,100567.06
2022-08-19T19:26:18.627Z,100575.78
2022-08-19T19:28:48.640Z,100579.16
2022-08-19T19:31:26.969Z,100579.88
2022-08-19T19:33:55.802Z,100590.44
2022-08-19T19:36:23.675Z,100591.19
2022-08-19T19:38:50.889Z,100587.78
2022-08-19T19:41:25.005Z,100592.88
2022-08-19T19:44:29.941Z,100599.94
2022-08-19T19:46:46.448Z,100609.13
2022-08-19T19:49:14.137Z,100607.22
2022-08-19T19:51:43.394Z,100604.78
2022-08-19T19:54:14.018Z,100598.47
2022-08-19T19:56:45.704Z,100608.13
2022-08-19T19:59:12.919Z,100604.97
2022-08-19T20:01:41.017Z,100605.44
2022-08-19T20:04:11.653Z,100614.41
2022-08-19T20:06:38.898Z,100620.19
2022-08-19T20:09:10.952Z,100623.31
2022-08-19T20:11:40.459Z,100630.63
2022-08-19T20:14:32.680Z,100634.53
2022-08-19T20:17:00.832Z,100632.03
2022-08-19T20:19:37.357Z,100635.09
2022-08-19T20:22:06.709Z,100634.88
2022-08-19T20:24:35.961Z,100642.50
2022-08-19T20:27:05.319Z,100644.81
2022-08-19T20:29:39.609Z,100645.56
2022-08-19T20:32:10.513Z,100644.59
2022-08-19T20:34:38.924Z,100651.41
2022-08-19T20:37:07.558Z,100653.47
2022-08-19T20:39:36.566Z,100646.91
2022-08-19T20:42:04.269Z,100652.00
2022-08-19T20:44:31.350Z,100648.88
2022-08-19T20:47:03.646Z,100649.50
2022-08-19T20:49:32.320Z,100649.25
2022-08-19T20:52:04.203Z,100649.00
2022-08-19T20:54:32.385Z,100654.84
2022-08-19T20:56:59.957Z,100645.84
2022-08-19T20:59:27.595Z,100652.91
2022-08-19T21:01:55.031Z,100651.19
2022-08-19T21:04:23.051Z,100657.50
2022-08-19T21:06:51.416Z,100663.66
2022-08-19T21:09:19.677Z,100665.38
2022-08-19T21:11:48.263Z,100663.66
2022-08-19T21:14:16.535Z,100658.22
2022-08-19T21:16:43.959Z,100666.00
2022-08-19T21:19:11.561Z,100660.91
2022-08-19T21:21:38.876Z,100664.53
2022-08-19T21:24:06.418Z,100663.56
2022-08-19T21:26:36.639Z,100671.56
2022-08-19T21:29:04.057Z,100676.75
2022-08-19T21:31:35.563Z,100676.75
2022-08-19T21:34:02.992Z,100674.72
2022-08-19T21:36:30.540Z,100669.38
2022-08-19T21:38:58.754Z,100665.13
2022-08-19T21:41:27.734Z,100674.97
2022-08-19T21:43:55.426Z,100674.97
2022-08-19T21:46:23.416Z,100675.69
2022-08-19T21:48:52.174Z,100667.66
2022-08-19T21:51:20.124Z,100666.00
2022-08-19T21:53:49.223Z,100665.38
2022-08-19T21:56:21.771Z,100657.50
2022-08-19T21:58:50.012Z,100657.75
2022-08-19T22:01:17.544Z,100662.22
2022-08-19T22:03:45.766Z,100656.75
2022-08-19T22:06:12.956Z,100658.34
2022-08-19T22:08:42.452Z,100654.84
2022-08-19T22:11:09.812Z,100653.00
2022-08-19T22:13:40.763Z,100663.06
2022-08-19T22:16:09.172Z,100660.66
2022-08-19T22:18:36.760Z,100665.25
2022-08-19T22:21:11.225Z,100675.06
2022-08-19T22:23:40.199Z,100677.84
2022-08-19T22:26:07.618Z,100671.06
2022-08-19T22:28:44.147Z,100672.16
2022-08-19T22:31:13.686Z,100670.44
2022-08-19T22:33:41.974Z,100668.88
2022-08-19T22:36:30.373Z,100675.16
2022-08-19T22:39:00.599Z,100677.00
2022-08-19T22:41:28.059Z,100682.44
2022-08-19T22:43:55.383Z,100687.75
2022-08-19T22:46:22.569Z,100678.19
2022-08-19T22:49:00.827Z,100681.94
2022-08-19T22:51:47.582Z,100684.84
2022-08-19T22:54:15.096Z,100694.78
2022-08-19T22:56:43.790Z,100698.41
2022-08-19T22:59:11.354Z,100685.19
2022-08-19T23:01:39.919Z,100683.63
2022-08-19T23:04:07.408Z,100687.22
2022-08-19T23:06:42.231Z,100683.84
2022-08-19T23:09:10.857Z,100679.47
2022-08-19T23:11:47.298Z,100670.75
2022-08-19T23:14:16.072Z,100671.72
2022-08-19T23:16:50.445Z,100677.16
2022-08-19T23:19:19.429Z,100670.25
2022-08-19T23:21:46.498Z,100667.81
2022-08-19T23:24:13.881Z,100666.88
2022-08-19T23:27:00.729Z,100663.34
2022-08-19T23:29:48.018Z,100667.06
2022-08-19T23:32:16.278Z,100667.06
2022-08-19T23:34:44.825Z,100667.19
2022-08-19T23:37:12.353Z,100670.81
2022-08-19T23:39:39.463Z,100660.16
2022-08-19T23:42:12.095Z,100665.59
2022-08-19T23:44:52.150Z,100663.03
2022-08-19T23:47:20.902Z,100658.78
2022-08-19T23:49:48.948Z,100652.63
2022-08-19T23:52:16.075Z,100647.41
2022-08-19T23:54:43.974Z,100635.03
2022-08-19T23:57:14.639Z,100636.03
2022-08-19T23:59:43.162Z,100639.66
